Time;durP1;ratioP1;P1;durP2;ratioP2;P2;SDS_P1;SDS_P2;PMS_P1;PMS_P2;Temp;Humidity;BMP_temperature;BMP_pressure;BME280_temperature;BME280_humidity;BME280_pressure;Samples;Min_cycle;Max_cycle;Signal;HPM_P1;HPM_P2
2024/01/22 00:00:39;;;;;;;10.7;5.2;;;;;;;;;;;;;
2024/01/22 00:03:05;;;;;;;9.1;5.1;;;;;;;;;;;;;
2024/01/22 00:05:31;;;;;;;8.5;4.7;;;;;;;;;;;;;
2024/01/22 00:07:56;;;;;;;9.1;5;;;;;;;;;;;;;
2024/01/22 00:10:21;;;;;;;9.3;4.6;;;;;;;;;;;;;
2024/01/22 00:12:47;;;;;;;9.8;5.4;;;;;;;;;;;;;
2024/01/22 00:15:12;;;;;;;8.6;4.4;;;;;;;;;;;;;
2024/01/22 00:17:40;;;;;;;8.9;4.7;;;;;;;;;;;;;
2024/01/22 00:20:07;;;;;;;7.9;4.5;;;;;;;;;;;;;
2024/01/22 00:22:36;;;;;;;9;4.5;;;;;;;;;;;;;
2024/01/22 00:25:04;;;;;;;16.7;8.4;;;;;;;;;;;;;
2024/01/22 00:27:28;;;;;;;15.7;8.2;;;;;;;;;;;;;
2024/01/22 00:29:54;;;;;;;9.6;5.1;;;;;;;;;;;;;
2024/01/22 00:32:19;;;;;;;7;4.2;;;;;;;;;;;;;
2024/01/22 00:34:48;;;;;;;10;4.3;;;;;;;;;;;;;
2024/01/22 00:37:13;;;;;;;9;7.8;;;;;;;;;;;;;
2024/01/22 00:39:39;;;;;;;10;5.6;;;;;;;;;;;;;
2024/01/22 00:42:04;;;;;;;7.7;4.2;;;;;;;;;;;;;
2024/01/22 00:44:29;;;;;;;7.8;4;;;;;;;;;;;;;
2024/01/22 00:46:55;;;;;;;8.2;4.1;;;;;;;;;;;;;
2024/01/22 00:49:20;;;;;;;8.1;4;;;;;;;;;;;;;
2024/01/22 00:51:45;;;;;;;7;3.7;;;;;;;;;;;;;
2024/01/22 00:54:10;;;;;;;8.4;3.5;;;;;;;;;;;;;
2024/01/22 00:56:36;;;;;;;6.7;3.5;;;;;;;;;;;;;
2024/01/22 00:59:02;;;;;;;6.9;3.7;;;;;;;;;;;;;
2024/01/22 01:01:33;;;;;;;4.8;3.2;;;;;;;;;;;;;
2024/01/22 01:03:58;;;;;;;6.3;3.1;;;;;;;;;;;;;
2024/01/22 01:06:26;;;;;;;6.8;2.9;;;;;;;;;;;;;
2024/01/22 01:08:52;;;;;;;5.1;2.7;;;;;;;;;;;;;
2024/01/22 01:11:17;;;;;;;4.7;2.7;;;;;;;;;;;;;
2024/01/22 01:13:45;;;;;;;6;3;;;;;;;;;;;;;
2024/01/22 01:16:13;;;;;;;5.9;2.8;;;;;;;;;;;;;
2024/01/22 01:18:39;;;;;;;5.1;2.8;;;;;;;;;;;;;
2024/01/22 01:21:09;;;;;;;5.4;2.8;;;;;;;;;;;;;
2024/01/22 01:23:35;;;;;;;4.5;2.3;;;;;;;;;;;;;
2024/01/22 01:26:00;;;;;;;3.9;2.6;;;;;;;;;;;;;
2024/01/22 01:28:30;;;;;;;3.5;2.4;;;;;;;;;;;;;
2024/01/22 01:31:00;;;;;;;4.1;2.4;;;;;;;;;;;;;
2024/01/22 01:33:29;;;;;;;5.1;2.5;;;;;;;;;;;;;
2024/01/22 01:35:58;;;;;;;3.2;2.1;;;;;;;;;;;;;
2024/01/22 01:38:27;;;;;;;4.5;2.5;;;;;;;;;;;;;
2024/01/22 01:40:56;;;;;;;2.9;2;;;;;;;;;;;;;
2024/01/22 01:43:24;;;;;;;4.3;2.3;;;;;;;;;;;;;
2024/01/22 01:45:50;;;;;;;4.1;2.3;;;;;;;;;;;;;
2024/01/22 01:48:18;;;;;;;3.7;2.2;;;;;;;;;;;;;
2024/01/22 01:50:46;;;;;;;3.1;1.8;;;;;;;;;;;;;
2024/01/22 01:53:20;;;;;;;2.7;1.9;;;;;;;;;;;;;
2024/01/22 01:55:45;;;;;;;4.6;2.2;;;;;;;;;;;;;
2024/01/22 01:58:10;;;;;;;3.6;2.1;;;;;;;;;;;;;
2024/01/22 02:00:36;;;;;;;3.3;1.7;;;;;;;;;;;;;
2024/01/22 02:03:01;;;;;;;5.1;1.8;;;;;;;;;;;;;
2024/01/22 02:05:31;;;;;;;5.9;2.2;;;;;;;;;;;;;
2024/01/22 02:07:59;;;;;;;5.9;2.7;;;;;;;;;;;;;
2024/01/22 02:10:24;;;;;;;4.1;2.1;;;;;;;;;;;;;
2024/01/22 02:12:52;;;;;;;2.7;1.9;;;;;;;;;;;;;
2024/01/22 02:15:17;;;;;;;3.1;1.9;;;;;;;;;;;;;
2024/01/22 02:17:44;;;;;;;3.6;1.6;;;;;;;;;;;;;
2024/01/22 02:20:10;;;;;;;3.1;1.9;;;;;;;;;;;;;
2024/01/22 02:22:38;;;;;;;2.2;1.7;;;;;;;;;;;;;
2024/01/22 02:25:03;;;;;;;3;1.9;;;;;;;;;;;;;
2024/01/22 02:27:31;;;;;;;3.2;1.8;;;;;;;;;;;;;
2024/01/22 02:29:56;;;;;;;3.2;1.8;;;;;;;;;;;;;
2024/01/22 02:32:22;;;;;;;2;1.8;;;;;;;;;;;;;
2024/01/22 02:34:47;;;;;;;2.9;1.9;;;;;;;;;;;;;
2024/01/22 02:37:14;;;;;;;2.7;1.9;;;;;;;;;;;;;
2024/01/22 02:39:38;;;;;;;3.3;2.1;;;;;;;;;;;;;
2024/01/22 02:42:04;;;;;;;3.1;2.1;;;;;;;;;;;;;
2024/01/22 02:44:29;;;;;;;3.6;1.9;;;;;;;;;;;;;
2024/01/22 02:46:56;;;;;;;2.7;1.9;;;;;;;;;;;;;
2024/01/22 02:49:21;;;;;;;3.6;2.3;;;;;;;;;;;;;
2024/01/22 02:51:48;;;;;;;3.7;2.5;;;;;;;;;;;;;
2024/01/22 02:54:14;;;;;;;4.6;2.5;;;;;;;;;;;;;
2024/01/22 02:56:39;;;;;;;4.2;2.9;;;;;;;;;;;;;
2024/01/22 02:59:04;;;;;;;4.7;2.3;;;;;;;;;;;;;
2024/01/22 03:01:30;;;;;;;4.4;1.9;;;;;;;;;;;;;
2024/01/22 03:03:56;;;;;;;3.5;2;;;;;;;;;;;;;
2024/01/22 03:06:23;;;;;;;2.1;1.7;;;;;;;;;;;;;
2024/01/22 03:08:48;;;;;;;2.6;1.5;;;;;;;;;;;;;
2024/01/22 03:11:15;;;;;;;2.3;1.8;;;;;;;;;;;;;
2024/01/22 03:13:40;;;;;;;2.9;1.7;;;;;;;;;;;;;
2024/01/22 03:16:05;;;;;;;5.3;2;;;;;;;;;;;;;
2024/01/22 03:18:30;;;;;;;2.9;1.4;;;;;;;;;;;;;
2024/01/22 03:20:56;;;;;;;2.5;1.6;;;;;;;;;;;;;
2024/01/22 03:23:21;;;;;;;2.2;1.5;;;;;;;;;;;;;
2024/01/22 03:25:47;;;;;;;2.5;1.4;;;;;;;;;;;;;
2024/01/22 03:28:13;;;;;;;3.1;1.4;;;;;;;;;;;;;
2024/01/22 03:30:39;;;;;;;3.2;1.7;;;;;;;;;;;;;
2024/01/22 03:33:05;;;;;;;4.1;2;;;;;;;;;;;;;
2024/01/22 03:35:30;;;;;;;6.6;2.6;;;;;;;;;;;;;
2024/01/22 03:37:55;;;;;;;3.3;2.3;;;;;;;;;;;;;
2024/01/22 03:40:22;;;;;;;5.2;2.7;;;;;;;;;;;;;
2024/01/22 03:42:47;;;;;;;4.8;2.3;;;;;;;;;;;;;
2024/01/22 03:45:15;;;;;;;3.4;1.9;;;;;;;;;;;;;
2024/01/22 03:47:40;;;;;;;3.1;2;;;;;;;;;;;;;
2024/01/22 03:50:10;;;;;;;2.4;1.5;;;;;;;;;;;;;
2024/01/22 03:52:36;;;;;;;2.3;1.6;;;;;;;;;;;;;
2024/01/22 03:55:02;;;;;;;2.8;1.7;;;;;;;;;;;;;
2024/01/22 03:57:28;;;;;;;3.2;2;;;;;;;;;;;;;
2024/01/22 03:59:53;;;;;;;3.6;2.1;;;;;;;;;;;;;
2024/01/22 04:02:29;;;;;;;4.3;2.4;;;;;;;-3.03;82.55859;944.7407;;;;
2024/01/22 04:04:54;;;;;;;4.2;2.3;;;;;;;-3.1;82.47852;944.7784;;;;
2024/01/22 04:07:25;;;;;;;3.1;2.3;;;;;;;-3.17;82.44238;944.7946;;;;
2024/01/22 04:09:51;;;;;;;3.2;1.9;;;;;;;-3.22;83.08496;944.8175;;;;
2024/01/22 04:12:18;;;;;;;4.5;2.1;;;;;;;-3.16;83.04297;944.8508;;;;
2024/01/22 04:14:43;;;;;;;3;2;;;;;;;-3.26;83.34375;944.8467;;;;
2024/01/22 04:17:08;;;;;;;4;2.4;;;;;;;-3.1;83.39746;944.9485;;;;
2024/01/22 04:19:35;;;;;;;4.2;2.3;;;;;;;-3.11;83.7041;944.872;;;;
2024/01/22 04:22:03;;;;;;;5.7;2.5;;;;;;;-2.74;82.4502;944.8845;;;;
2024/01/22 04:24:27;;;;;;;4.3;2.6;;;;;;;-2.89;82.55273;944.965;;;;
2024/01/22 04:26:54;;;;;;;5.1;2.6;;;;;;;-2.72;81.70215;944.9648;;;;
2024/01/22 04:29:21;;;;;;;4.5;2.5;;;;;;;-2.91;81.99609;944.9922;;;;
2024/01/22 04:31:46;;;;;;;4.9;2.3;;;;;;;-2.79;81.93164;944.9714;;;;
2024/01/22 04:34:11;;;;;;;6.5;2.5;;;;;;;-2.82;82.19238;944.9356;;;;
2024/01/22 04:36:36;;;;;;;4.5;2.6;;;;;;;-2.79;81.69922;945.0175;;;;
2024/01/22 04:39:09;;;;;;;3.6;2.2;;;;;;;-3.01;82.15137;944.9333;;;;
2024/01/22 04:41:35;;;;;;;4.8;2.5;;;;;;;-3.04;82.35645;945.0045;;;;
2024/01/22 04:44:05;;;;;;;5.6;2.6;;;;;;;-3.02;82.7041;944.9903;;;;
2024/01/22 04:46:30;;;;;;;4;2.2;;;;;;;-3.1;82.70117;944.9931;;;;
2024/01/22 04:48:59;;;;;;;4.8;2.2;;;;;;;-3.22;82.79785;945.0371;;;;
2024/01/22 04:51:24;;;;;;;5.6;3;;;;;;;-3;82.68555;945.0616;;;;
2024/01/22 04:53:54;;;;;;;7.6;2.9;;;;;;;-2.91;81.79688;945.0639;;;;
2024/01/22 04:56:23;;;;;;;3.6;2.7;;;;;;;-3.07;82.07617;945.0111;;;;
2024/01/22 04:58:49;;;;;;;4.5;2.7;;;;;;;-3.13;82.20898;944.98;;;;
2024/01/22 05:01:14;;;;;;;4.4;2.9;;;;;;;-3.19;82.69238;944.9213;;;;
2024/01/22 05:03:42;;;;;;;5;3.3;;;;;;;-3.29;83.23633;944.8903;;;;
2024/01/22 05:06:07;;;;;;;4.7;2.9;;;;;;;-3.33;83.4834;944.8669;;;;
2024/01/22 05:08:33;;;;;;;5;3.1;;;;;;;-3.3;83.43359;945.0366;;;;
2024/01/22 05:10:58;;;;;;;5.3;3.1;;;;;;;-3.41;83.65527;944.9586;;;;
2024/01/22 05:13:26;;;;;;;8.9;4.4;;;;;;;-3.43;83.99414;944.9285;;;;
2024/01/22 05:15:51;;;;;;;10.5;5.3;;;;;;;-3.24;83.45605;944.85;;;;
2024/01/22 05:18:17;;;;;;;7.1;4;;;;;;;-2.99;82.40039;944.8036;;;;
2024/01/22 05:20:41;;;;;;;8;5.1;;;;;;;-3.12;82.48535;944.7767;;;;
2024/01/22 05:23:10;;;;;;;11.8;7.5;;;;;;;-3.3;82.91406;944.7142;;;;
2024/01/22 05:25:34;;;;;;;14.6;9.4;;;;;;;-3.37;83.375;944.6392;;;;
2024/01/22 05:28:02;;;;;;;10.3;6.4;;;;;;;-3.12;82.67383;944.568;;;;
2024/01/22 05:30:27;;;;;;;9.4;5.3;;;;;;;-3.21;82.58008;944.5233;;;;
2024/01/22 05:32:53;;;;;;;32.1;20.9;;;;;;;;;;;;;
2024/01/22 05:35:18;;;;;;;11.8;7.4;;;;;;;;;;;;;
2024/01/22 05:37:49;;;;;;;98.6;50.5;;;;;;;;;;;;;
2024/01/22 05:40:13;;;;;;;85.9;48.9;;;;;;;;;;;;;
2024/01/22 05:42:37;;;;;;;17.5;10.8;;;;;;;;;;;;;
2024/01/22 05:45:03;;;;;;;37.5;23.9;;;;;;;;;;;;;
2024/01/22 05:47:31;;;;;;;38.1;22.4;;;;;;;;;;;;;
2024/01/22 05:49:56;;;;;;;40.3;22.5;;;;;;;;;;;;;
2024/01/22 05:52:23;;;;;;;17.5;10;;;;;;;;;;;;;
2024/01/22 05:54:48;;;;;;;119.9;54.8;;;;;;;;;;;;;
2024/01/22 05:57:14;;;;;;;50.7;24.3;;;;;;;;;;;;;
2024/01/22 05:59:39;;;;;;;125.1;57.9;;;;;;;;;;;;;
2024/01/22 06:02:05;;;;;;;44.1;22.9;;;;;;;;;;;;;
2024/01/22 06:04:30;;;;;;;97;62.3;;;;;;;;;;;;;
2024/01/22 06:06:57;;;;;;;69.6;35.3;;;;;;;;;;;;;
2024/01/22 06:09:22;;;;;;;155.9;68.6;;;;;;;;;;;;;
2024/01/22 06:11:49;;;;;;;93.3;43.1;;;;;;;;;;;;;
2024/01/22 06:14:16;;;;;;;43.2;20.9;;;;;;;;;;;;;
2024/01/22 06:16:41;;;;;;;37.4;21.4;;;;;;;;;;;;;
2024/01/22 06:19:06;;;;;;;26.7;13.5;;;;;;;;;;;;;
2024/01/22 06:21:32;;;;;;;14;8;;;;;;;;;;;;;
2024/01/22 06:23:57;;;;;;;12.8;6.7;;;;;;;;;;;;;
2024/01/22 06:26:23;;;;;;;9.7;5.9;;;;;;;;;;;;;
2024/01/22 06:28:48;;;;;;;6.7;5;;;;;;;;;;;;;
2024/01/22 06:31:15;;;;;;;7.6;4.6;;;;;;;;;;;;;
2024/01/22 06:33:40;;;;;;;29;12;;;;;;;;;;;;;
2024/01/22 06:36:06;;;;;;;26.9;13;;;;;;;;;;;;;
2024/01/22 06:38:31;;;;;;;50.5;20.6;;;;;;;;;;;;;
2024/01/22 06:40:56;;;;;;;11.2;5.4;;;;;;;;;;;;;
2024/01/22 06:43:21;;;;;;;38.8;19;;;;;;;;;;;;;
2024/01/22 06:45:49;;;;;;;77.7;35.6;;;;;;;;;;;;;
2024/01/22 06:48:14;;;;;;;88.2;40.4;;;;;;;;;;;;;
2024/01/22 06:50:41;;;;;;;66.2;31.2;;;;;;;;;;;;;
2024/01/22 06:53:06;;;;;;;61.4;27.6;;;;;;;;;;;;;
2024/01/22 06:55:34;;;;;;;107.1;44.1;;;;;;;;;;;;;
2024/01/22 06:57:59;;;;;;;30.8;13.4;;;;;;;;;;;;;
2024/01/22 07:00:24;;;;;;;31.3;14.5;;;;;;;;;;;;;
2024/01/22 07:02:49;;;;;;;36.3;18.7;;;;;;;;;;;;;
2024/01/22 07:05:18;;;;;;;15.3;8.6;;;;;;;;;;;;;
2024/01/22 07:07:42;;;;;;;13.2;6.6;;;;;;;;;;;;;
2024/01/22 07:10:07;;;;;;;17.2;8.9;;;;;;;;;;;;;
2024/01/22 07:12:32;;;;;;;50;27.1;;;;;;;;;;;;;
2024/01/22 07:14:57;;;;;;;18.7;11;;;;;;;;;;;;;
2024/01/22 07:17:23;;;;;;;25.7;14.3;;;;;;;;;;;;;
2024/01/22 07:19:49;;;;;;;16;8.9;;;;;;;;;;;;;
2024/01/22 07:22:14;;;;;;;9;5.1;;;;;;;;;;;;;
2024/01/22 07:24:40;;;;;;;7.4;4.8;;;;;;;;;;;;;
2024/01/22 07:27:05;;;;;;;30.6;15.2;;;;;;;;;;;;;
2024/01/22 07:29:34;;;;;;;14.3;7.5;;;;;;;;;;;;;
2024/01/22 07:31:59;;;;;;;44.2;16.8;;;;;;;;;;;;;
2024/01/22 07:34:25;;;;;;;20.5;10.2;;;;;;;;;;;;;
2024/01/22 07:36:49;;;;;;;63.9;29.6;;;;;;;;;;;;;
2024/01/22 07:39:15;;;;;;;48;23.1;;;;;;;;;;;;;
2024/01/22 07:41:40;;;;;;;37.1;18.4;;;;;;;;;;;;;
2024/01/22 07:44:07;;;;;;;23.3;12.9;;;;;;;;;;;;;
2024/01/22 07:46:32;;;;;;;18.2;9.8;;;;;;;;;;;;;
2024/01/22 07:48:58;;;;;;;15.1;8.1;;;;;;;;;;;;;
2024/01/22 07:51:23;;;;;;;12.3;7.4;;;;;;;;;;;;;
2024/01/22 07:53:50;;;;;;;16.3;8.4;;;;;;;;;;;;;
2024/01/22 07:56:15;;;;;;;16.7;8.9;;;;;;;;;;;;;
2024/01/22 07:58:44;;;;;;;17.1;9.1;;;;;;;;;;;;;
2024/01/22 08:01:06;;;;;;;16.4;8.5;;;;;;;;;;;;;
2024/01/22 08:03:33;;;;;;;15.1;8.5;;;;;;;;;;;;;
2024/01/22 08:05:58;;;;;;;15.4;8.3;;;;;;;;;;;;;
2024/01/22 08:08:23;;;;;;;15;8.1;;;;;;;;;;;;;
2024/01/22 08:10:48;;;;;;;14.7;7.7;;;;;;;;;;;;;
2024/01/22 08:13:18;;;;;;;14.6;8.7;;;;;;;;;;;;;
2024/01/22 08:15:44;;;;;;;12.8;7.9;;;;;;;;;;;;;
2024/01/22 08:18:09;;;;;;;15.4;8.2;;;;;;;;;;;;;
2024/01/22 08:20:43;;;;;;;20.5;10.8;;;;;;;;;;;;;
2024/01/22 08:23:06;;;;;;;21.1;10.6;;;;;;;;;;;;;
2024/01/22 08:25:31;;;;;;;20.7;10.1;;;;;;;;;;;;;
2024/01/22 08:27:56;;;;;;;22.5;11.2;;;;;;;;;;;;;
2024/01/22 08:30:24;;;;;;;19.9;10.4;;;;;;;;;;;;;
2024/01/22 08:32:51;;;;;;;15.8;9.4;;;;;;;;;;;;;
2024/01/22 08:35:14;;;;;;;18.1;10;;;;;;;;;;;;;
2024/01/22 08:37:41;;;;;;;19.7;10;;;;;;;;;;;;;
2024/01/22 08:40:06;;;;;;;20.1;10.9;;;;;;;;;;;;;
2024/01/22 08:42:34;;;;;;;19.2;10;;;;;;;;;;;;;
2024/01/22 08:44:59;;;;;;;24.4;12.6;;;;;;;;;;;;;
2024/01/22 08:47:24;;;;;;;24.6;12.4;;;;;;;;;;;;;
2024/01/22 08:49:51;;;;;;;20.5;10.9;;;;;;;;;;;;;
2024/01/22 08:52:16;;;;;;;16;9.2;;;;;;;;;;;;;
2024/01/22 08:54:41;;;;;;;17.3;8.8;;;;;;;;;;;;;
2024/01/22 08:57:07;;;;;;;15.4;8.5;;;;;;;;;;;;;
2024/01/22 08:59:32;;;;;;;16.3;9.3;;;;;;;;;;;;;
2024/01/22 09:01:58;;;;;;;16.5;9.6;;;;;;;;;;;;;
2024/01/22 09:04:23;;;;;;;17.6;10.5;;;;;;;;;;;;;
2024/01/22 09:06:51;;;;;;;19.8;11.6;;;;;;;;;;;;;
2024/01/22 09:09:16;;;;;;;35.2;19.4;;;;;;;;;;;;;
2024/01/22 09:11:42;;;;;;;16.3;10.4;;;;;;;;;;;;;
2024/01/22 09:14:07;;;;;;;16.1;9.5;;;;;;;;;;;;;
2024/01/22 09:16:32;;;;;;;17.3;10.2;;;;;;;;;;;;;
2024/01/22 09:18:58;;;;;;;18.1;10.3;;;;;;;;;;;;;
2024/01/22 09:21:23;;;;;;;18.3;10.1;;;;;;;;;;;;;
2024/01/22 09:23:48;;;;;;;27.1;16.8;;;;;;;;;;;;;
2024/01/22 09:26:16;;;;;;;30.6;19.4;;;;;;;;;;;;;
2024/01/22 09:28:41;;;;;;;31.6;19.3;;;;;;;;;;;;;
2024/01/22 09:31:06;;;;;;;29.9;16.2;;;;;;;;;;;;;
2024/01/22 09:33:31;;;;;;;32.5;19.3;;;;;;;;;;;;;
2024/01/22 09:35:57;;;;;;;31;19.3;;;;;;;;;;;;;
2024/01/22 09:38:21;;;;;;;33.3;19.4;;;;;;;;;;;;;
2024/01/22 09:40:49;;;;;;;30.5;17.5;;;;;;;;;;;;;
2024/01/22 09:43:14;;;;;;;21.2;13.2;;;;;;;;;;;;;
2024/01/22 09:45:40;;;;;;;18.4;11.4;;;;;;;;;;;;;
2024/01/22 09:48:05;;;;;;;17.2;10.1;;;;;;;;;;;;;
2024/01/22 09:50:35;;;;;;;16.1;9.6;;;;;;;;;;;;;
2024/01/22 09:53:03;;;;;;;16.4;9.7;;;;;;;;;;;;;
2024/01/22 09:55:28;;;;;;;15.1;8.9;;;;;;;;;;;;;
2024/01/22 09:57:57;;;;;;;11.8;7.5;;;;;;;;;;;;;
2024/01/22 10:00:25;;;;;;;11.6;6.8;;;;;;;;;;;;;
2024/01/22 10:02:47;;;;;;;11.1;6.6;;;;;;;;;;;;;
2024/01/22 10:05:15;;;;;;;12.6;7.4;;;;;;;;;;;;;
2024/01/22 10:07:40;;;;;;;10.1;6.1;;;;;;;;;;;;;
2024/01/22 10:10:05;;;;;;;11.9;6.2;;;;;;;;;;;;;
2024/01/22 10:12:30;;;;;;;11.5;6.7;;;;;;;;;;;;;
2024/01/22 10:14:55;;;;;;;12.7;7;;;;;;;;;;;;;
2024/01/22 10:17:20;;;;;;;12.5;7.4;;;;;;;;;;;;;
2024/01/22 10:19:48;;;;;;;13.5;7.5;;;;;;;;;;;;;
2024/01/22 10:22:13;;;;;;;21.7;9.5;;;;;;;;;;;;;
2024/01/22 10:24:39;;;;;;;29.1;13.9;;;;;;;;;;;;;
2024/01/22 10:27:04;;;;;;;20.3;10.4;;;;;;;;;;;;;
2024/01/22 10:29:30;;;;;;;34.5;15.3;;;;;;;;;;;;;
2024/01/22 10:31:56;;;;;;;26.8;11.6;;;;;;;;;;;;;
2024/01/22 10:34:21;;;;;;;30.5;13.5;;;;;;;;;;;;;
2024/01/22 10:36:46;;;;;;;25.3;12.1;;;;;;;;;;;;;
2024/01/22 10:39:11;;;;;;;29.8;14.2;;;;;;;;;;;;;
2024/01/22 10:41:40;;;;;;;21.3;12.3;;;;;;;;;;;;;
2024/01/22 10:44:02;;;;;;;17.8;10.7;;;;;;;;;;;;;
2024/01/22 10:46:27;;;;;;;12.8;8.2;;;;;;;;;;;;;
2024/01/22 10:48:52;;;;;;;10.3;6.5;;;;;;;;;;;;;
2024/01/22 10:51:17;;;;;;;13.7;7.2;;;;;;;;;;;;;
2024/01/22 10:53:43;;;;;;;13.5;7.4;;;;;;;;;;;;;
2024/01/22 10:56:08;;;;;;;16.2;9.5;;;;;;;;;;;;;
2024/01/22 10:58:33;;;;;;;18.2;10.6;;;;;;;;;;;;;
2024/01/22 11:01:01;;;;;;;15.9;9.5;;;;;;;;;;;;;
2024/01/22 11:03:26;;;;;;;17.9;10.7;;;;;;;;;;;;;
2024/01/22 11:05:54;;;;;;;10.4;6.8;;;;;;;;;;;;;
2024/01/22 11:08:19;;;;;;;11.4;6;;;;;;;;;;;;;
2024/01/22 11:10:45;;;;;;;9.4;5.8;;;;;;;;;;;;;
2024/01/22 11:13:11;;;;;;;9.1;5.6;;;;;;;;;;;;;
2024/01/22 11:15:39;;;;;;;8.6;5.2;;;;;;;;;;;;;
2024/01/22 11:18:04;;;;;;;7.5;5.1;;;;;;;;;;;;;
2024/01/22 11:20:32;;;;;;;6;4.7;;;;;;;;;;;;;
2024/01/22 11:22:56;;;;;;;7.6;4.9;;;;;;;;;;;;;
2024/01/22 11:25:21;;;;;;;4.4;3.4;;;;;;;;;;;;;
2024/01/22 11:27:47;;;;;;;8.1;4.4;;;;;;;;;;;;;
2024/01/22 11:30:15;;;;;;;24.2;11.4;;;;;;;;;;;;;
2024/01/22 11:32:40;;;;;;;13.4;6.5;;;;;;;;;;;;;
2024/01/22 11:35:07;;;;;;;7.8;4.8;;;;;;;;;;;;;
2024/01/22 11:37:33;;;;;;;11.9;7.6;;;;;;;;;;;;;
2024/01/22 11:40:01;;;;;;;17.4;10.8;;;;;;;;;;;;;
2024/01/22 11:42:27;;;;;;;13.3;8.5;;;;;;;;;;;;;
2024/01/22 11:44:51;;;;;;;11.5;7.5;;;;;;;;;;;;;
2024/01/22 11:47:19;;;;;;;11.6;7.6;;;;;;;;;;;;;
2024/01/22 11:49:48;;;;;;;22.2;13.5;;;;;;;;;;;;;
2024/01/22 11:52:12;;;;;;;18.2;12.2;;;;;;;;;;;;;
2024/01/22 11:54:39;;;;;;;16.2;9.4;;;;;;;;;;;;;
2024/01/22 11:57:07;;;;;;;12.9;8.4;;;;;;;;;;;;;
2024/01/22 11:59:30;;;;;;;13.5;8.4;;;;;;;;;;;;;
2024/01/22 12:01:57;;;;;;;12.8;7.8;;;;;;;;;;;;;
2024/01/22 12:04:23;;;;;;;14;8.1;;;;;;;;;;;;;
2024/01/22 12:06:50;;;;;;;12.6;8;;;;;;;;;;;;;
2024/01/22 12:09:14;;;;;;;46.3;30.3;;;;;;;;;;;;;
2024/01/22 12:11:40;;;;;;;35.2;22.5;;;;;;;;;;;;;
2024/01/22 12:14:05;;;;;;;18.3;10.7;;;;;;;;;;;;;
2024/01/22 12:16:32;;;;;;;16.1;10;;;;;;;;;;;;;
2024/01/22 12:18:57;;;;;;;18.5;11.4;;;;;;;;;;;;;
2024/01/22 12:21:22;;;;;;;19.9;11.4;;;;;;;;;;;;;
2024/01/22 12:23:47;;;;;;;18;11.1;;;;;;;;;;;;;
2024/01/22 12:26:13;;;;;;;19.6;12.1;;;;;;;;;;;;;
2024/01/22 12:28:38;;;;;;;19.2;11.7;;;;;;;;;;;;;
2024/01/22 12:31:03;;;;;;;18.9;12.2;;;;;;;;;;;;;
2024/01/22 12:33:29;;;;;;;21.9;14.4;;;;;;;;;;;;;
2024/01/22 12:35:54;;;;;;;21;13.3;;;;;;;;;;;;;
2024/01/22 12:38:20;;;;;;;23.8;14.7;;;;;;;;;;;;;
2024/01/22 12:40:44;;;;;;;23.6;15.3;;;;;;;;;;;;;
2024/01/22 12:43:10;;;;;;;23.4;15.1;;;;;;;;;;;;;
2024/01/22 12:45:35;;;;;;;23;14.7;;;;;;;;;;;;;
2024/01/22 12:48:00;;;;;;;23;14.6;;;;;;;;;;;;;
2024/01/22 12:50:25;;;;;;;25.2;15.4;;;;;;;;;;;;;
2024/01/22 12:52:52;;;;;;;23.9;15;;;;;;;;;;;;;
2024/01/22 12:55:17;;;;;;;23.4;14.9;;;;;;;;;;;;;
2024/01/22 12:57:43;;;;;;;23;15.2;;;;;;;;;;;;;
2024/01/22 13:00:08;;;;;;;25.2;15.2;;;;;;;;;;;;;
2024/01/22 13:02:39;;;;;;;23.7;13.5;;;;;;;;;;;;;
2024/01/22 13:05:06;;;;;;;21.8;14.2;;;;;;;;;;;;;
2024/01/22 13:07:31;;;;;;;20.3;12.8;;;;;;;;;;;;;
2024/01/22 13:09:57;;;;;;;19.6;12.7;;;;;;;;;;;;;
2024/01/22 13:12:22;;;;;;;20;12.4;;;;;;;;;;;;;
2024/01/22 13:14:48;;;;;;;20.3;12.9;;;;;;;;;;;;;
2024/01/22 13:17:13;;;;;;;19.1;12.8;;;;;;;;;;;;;
2024/01/22 13:19:42;;;;;;;27.3;16.8;;;;;;;;;;;;;
2024/01/22 13:22:07;;;;;;;28;16.2;;;;;;;;;;;;;
2024/01/22 13:24:33;;;;;;;21.7;14.1;;;;;;;;;;;;;
2024/01/22 13:26:58;;;;;;;18;12;;;;;;;;;;;;;
2024/01/22 13:29:23;;;;;;;21.4;13;;;;;;;;;;;;;
2024/01/22 13:31:48;;;;;;;21.1;12.3;;;;;;;;;;;;;
2024/01/22 13:34:15;;;;;;;22.3;13;;;;;;;;;;;;;
2024/01/22 13:36:40;;;;;;;19.2;11.5;;;;;;;;;;;;;
2024/01/22 13:39:06;;;;;;;17.2;10.2;;;;;;;;;;;;;
2024/01/22 13:41:31;;;;;;;13.6;8.6;;;;;;;;;;;;;
2024/01/22 13:43:58;;;;;;;15.8;8.7;;;;;;;;;;;;;
2024/01/22 13:46:23;;;;;;;15.7;9.3;;;;;;;;;;;;;
2024/01/22 13:48:50;;;;;;;19.5;9.8;;;;;;;;;;;;;
2024/01/22 13:51:16;;;;;;;20.2;11.8;;;;;;;;;;;;;
2024/01/22 13:53:44;;;;;;;15.6;9.6;;;;;;;;;;;;;
2024/01/22 13:56:07;;;;;;;14.9;9.9;;;;;;;;;;;;;
2024/01/22 13:58:34;;;;;;;15.8;9.4;;;;;;;;;;;;;
2024/01/22 14:00:59;;;;;;;14.4;8.3;;;;;;;;;;;;;
2024/01/22 14:03:25;;;;;;;13.6;8.1;;;;;;;;;;;;;
2024/01/22 14:05:50;;;;;;;17.3;9;;;;;;;;;;;;;
2024/01/22 14:08:16;;;;;;;7.5;4.3;;;;;;;;;;;;;
2024/01/22 14:10:41;;;;;;;12.8;7.7;;;;;;;;;;;;;
2024/01/22 14:13:10;;;;;;;7.8;4.9;;;;;;;;;;;;;
2024/01/22 14:15:38;;;;;;;5.5;3.3;;;;;;;;;;;;;
2024/01/22 14:18:03;;;;;;;3;2;;;;;;;;;;;;;
2024/01/22 14:20:28;;;;;;;3.7;2;;;;;;;;;;;;;
2024/01/22 14:22:53;;;;;;;2.5;1.7;;;;;;;;;;;;;
2024/01/22 14:25:21;;;;;;;4.7;1.9;;;;;;;;;;;;;
2024/01/22 14:27:47;;;;;;;2.6;1.8;;;;;;;;;;;;;
2024/01/22 14:30:15;;;;;;;2.7;1.9;;;;;;;;;;;;;
2024/01/22 14:32:41;;;;;;;22.7;11.9;;;;;;;;;;;;;
2024/01/22 14:35:08;;;;;;;13.8;8.2;;;;;;;;;;;;;
2024/01/22 14:37:33;;;;;;;6.9;5;;;;;;;;;;;;;
2024/01/22 14:39:59;;;;;;;7.5;4.6;;;;;;;;;;;;;
2024/01/22 14:42:24;;;;;;;5.9;4.1;;;;;;;;;;;;;
2024/01/22 14:44:50;;;;;;;14.3;9.1;;;;;;;;;;;;;
2024/01/22 14:47:16;;;;;;;8.3;5;;;;;;;;;;;;;
2024/01/22 14:49:43;;;;;;;8.6;5.8;;;;;;;;;;;;;
2024/01/22 14:52:08;;;;;;;9.8;5.9;;;;;;;;;;;;;
2024/01/22 14:54:33;;;;;;;14.1;9.4;;;;;;;;;;;;;
2024/01/22 14:56:58;;;;;;;11.3;6.5;;;;;;;;;;;;;
2024/01/22 14:59:28;;;;;;;13.2;7.9;;;;;;;;;;;;;
2024/01/22 15:01:53;;;;;;;21.2;11.6;;;;;;;;;;;;;
2024/01/22 15:04:19;;;;;;;9.3;5.9;;;;;;;;;;;;;
2024/01/22 15:06:46;;;;;;;7.3;3.7;;;;;;;;;;;;;
2024/01/22 15:09:12;;;;;;;7.2;5.1;;;;;;;;;;;;;
2024/01/22 15:11:36;;;;;;;7.7;5.2;;;;;;;;;;;;;
2024/01/22 15:14:03;;;;;;;18.4;13.6;;;;;;;;;;;;;
2024/01/22 15:16:28;;;;;;;12.7;8.7;;;;;;;;;;;;;
2024/01/22 15:18:55;;;;;;;11.1;6.5;;;;;;;;;;;;;
2024/01/22 15:21:20;;;;;;;12.1;6.7;;;;;;;;;;;;;
2024/01/22 15:23:46;;;;;;;8.3;5.5;;;;;;;;;;;;;
2024/01/22 15:26:11;;;;;;;9.9;5.2;;;;;;;;;;;;;
2024/01/22 15:28:38;;;;;;;5.7;3.5;;;;;;;;;;;;;
2024/01/22 15:31:03;;;;;;;5.2;3;;;;;;;;;;;;;
2024/01/22 15:33:30;;;;;;;6.8;3.1;;;;;;;;;;;;;
2024/01/22 15:35:55;;;;;;;4.3;3;;;;;;;;;;;;;
2024/01/22 15:38:22;;;;;;;6.3;4.1;;;;;;;;;;;;;
2024/01/22 15:40:47;;;;;;;6.4;4.1;;;;;;;;;;;;;
2024/01/22 15:43:13;;;;;;;9.5;4.9;;;;;;;;;;;;;
2024/01/22 15:45:39;;;;;;;10.7;4.8;;;;;;;;;;;;;
2024/01/22 15:48:06;;;;;;;9.3;4.9;;;;;;;;;;;;;
2024/01/22 15:50:32;;;;;;;10;5.3;;;;;;;;;;;;;
2024/01/22 15:52:59;;;;;;;9.8;5.7;;;;;;;;;;;;;
2024/01/22 15:55:22;;;;;;;14.1;7.5;;;;;;;;;;;;;
2024/01/22 15:57:52;;;;;;;13.6;7.7;;;;;;;;;;;;;
2024/01/22 16:00:22;;;;;;;14.1;8.3;;;;;;;;;;;;;
2024/01/22 16:02:46;;;;;;;12.5;8;;;;;;;;;;;;;
2024/01/22 16:05:12;;;;;;;10.7;6.4;;;;;;;;;;;;;
2024/01/22 16:07:38;;;;;;;5.8;3.8;;;;;;;;;;;;;
2024/01/22 16:10:04;;;;;;;6.2;3.9;;;;;;;;;;;;;
2024/01/22 16:12:29;;;;;;;8.4;5;;;;;;;;;;;;;
2024/01/22 16:14:57;;;;;;;12.8;8;;;;;;;;;;;;;
2024/01/22 16:17:22;;;;;;;17.3;8.7;;;;;;;;;;;;;
2024/01/22 16:19:47;;;;;;;12.7;7.5;;;;;;;;;;;;;
2024/01/22 16:22:12;;;;;;;9.3;6.7;;;;;;;;;;;;;
2024/01/22 16:24:39;;;;;;;37.9;18.1;;;;;;;;;;;;;
2024/01/22 16:27:04;;;;;;;160.6;69.6;;;;;;;;;;;;;
2024/01/22 16:29:31;;;;;;;47.2;23.3;;;;;;;;;;;;;
2024/01/22 16:31:56;;;;;;;24.1;12.5;;;;;;;;;;;;;
2024/01/22 16:34:22;;;;;;;19.8;10.4;;;;;;;;;;;;;
2024/01/22 16:36:48;;;;;;;25.1;14.3;;;;;;;;;;;;;
2024/01/22 16:39:14;;;;;;;24.7;14.6;;;;;;;;;;;;;
2024/01/22 16:41:39;;;;;;;29.1;16.7;;;;;;;;;;;;;
2024/01/22 16:44:08;;;;;;;27.5;16.2;;;;;;;;;;;;;
2024/01/22 16:46:32;;;;;;;27.6;14.5;;;;;;;;;;;;;
2024/01/22 16:48:58;;;;;;;33.5;15.9;;;;;;;;;;;;;
2024/01/22 16:51:23;;;;;;;27.6;14.1;;;;;;;;;;;;;
2024/01/22 16:53:51;;;;;;;20.5;11.6;;;;;;;;;;;;;
2024/01/22 16:56:16;;;;;;;21.6;11.7;;;;;;;;;;;;;
2024/01/22 16:58:41;;;;;;;18.5;10.9;;;;;;;;;;;;;
2024/01/22 17:01:06;;;;;;;16.3;9.8;;;;;;;;;;;;;
2024/01/22 17:03:34;;;;;;;14.9;9.5;;;;;;;;;;;;;
2024/01/22 17:05:58;;;;;;;16.5;9.7;;;;;;;;;;;;;
2024/01/22 17:08:25;;;;;;;24.7;13.3;;;;;;;;;;;;;
2024/01/22 17:10:50;;;;;;;26.7;15.4;;;;;;;;;;;;;
2024/01/22 17:13:21;;;;;;;25.6;14.6;;;;;;;;;;;;;
2024/01/22 17:15:47;;;;;;;18.7;11.7;;;;;;;;;;;;;
2024/01/22 17:18:12;;;;;;;15.9;9.3;;;;;;;;;;;;;
2024/01/22 17:20:38;;;;;;;14;8.2;;;;;;;;;;;;;
2024/01/22 17:23:03;;;;;;;15.9;8.6;;;;;;;;;;;;;
2024/01/22 17:25:30;;;;;;;37.7;16.3;;;;;;;;;;;;;
2024/01/22 17:27:55;;;;;;;286;85.7;;;;;;;;;;;;;
2024/01/22 17:30:21;;;;;;;203.6;63.5;;;;;;;;;;;;;
2024/01/22 17:32:46;;;;;;;55.7;26.2;;;;;;;;;;;;;
2024/01/22 17:35:15;;;;;;;33;18.7;;;;;;;;;;;;;
2024/01/22 17:37:44;;;;;;;43.4;23.1;;;;;;;;;;;;;
2024/01/22 17:40:09;;;;;;;37.6;20.5;;;;;;;;;;;;;
2024/01/22 17:42:35;;;;;;;38.6;21.7;;;;;;;;;;;;;
2024/01/22 17:45:00;;;;;;;39.4;23.1;;;;;;;;;;;;;
2024/01/22 17:47:29;;;;;;;38.2;21.5;;;;;;;;;;;;;
2024/01/22 17:49:52;;;;;;;33;18.5;;;;;;;;;;;;;
2024/01/22 17:52:19;;;;;;;28.5;18;;;;;;;;;;;;;
2024/01/22 17:54:43;;;;;;;38;21;;;;;;;;;;;;;
2024/01/22 17:57:10;;;;;;;34.4;20.4;;;;;;;;;;;;;
2024/01/22 17:59:35;;;;;;;36.9;22.1;;;;;;;;;;;;;
2024/01/22 18:02:01;;;;;;;40.5;23.4;;;;;;;;;;;;;
2024/01/22 18:04:26;;;;;;;37.6;20.9;;;;;;;;;;;;;
2024/01/22 18:06:54;;;;;;;29.9;18.8;;;;;;;;;;;;;
2024/01/22 18:09:19;;;;;;;39.7;22.6;;;;;;;;;;;;;
2024/01/22 18:11:45;;;;;;;40;23.1;;;;;;;;;;;;;
2024/01/22 18:14:11;;;;;;;39.6;21.9;;;;;;;;;;;;;
2024/01/22 18:16:36;;;;;;;56.2;28.3;;;;;;;;;;;;;
2024/01/22 18:19:01;;;;;;;49.3;25.1;;;;;;;;;;;;;
2024/01/22 18:21:26;;;;;;;32.7;18.5;;;;;;;;;;;;;
2024/01/22 18:23:51;;;;;;;22.7;13.1;;;;;;;;;;;;;
2024/01/22 18:26:19;;;;;;;18.2;10.8;;;;;;;;;;;;;
2024/01/22 18:28:43;;;;;;;17.7;11.2;;;;;;;;;;;;;
2024/01/22 18:31:11;;;;;;;26.8;14.4;;;;;;;;;;;;;
2024/01/22 18:33:35;;;;;;;29.1;16.4;;;;;;;;;;;;;
2024/01/22 18:36:04;;;;;;;25.7;15.3;;;;;;;;;;;;;
2024/01/22 18:38:27;;;;;;;23.4;13.6;;;;;;;;;;;;;
2024/01/22 18:40:53;;;;;;;20.3;13;;;;;;;;;;;;;
2024/01/22 18:43:20;;;;;;;22.1;12;;;;;;;;;;;;;
2024/01/22 18:45:43;;;;;;;23.9;14.5;;;;;;;;;;;;;
2024/01/22 18:48:09;;;;;;;30;19.8;;;;;;;;;;;;;
2024/01/22 18:50:35;;;;;;;34.2;18.2;;;;;;;;;;;;;
2024/01/22 18:53:02;;;;;;;34.3;20.3;;;;;;;;;;;;;
2024/01/22 18:55:28;;;;;;;38.3;20.9;;;;;;;;;;;;;
2024/01/22 18:57:53;;;;;;;36.4;21.9;;;;;;;;;;;;;
2024/01/22 19:00:18;;;;;;;36.8;21.6;;;;;;;;;;;;;
2024/01/22 19:02:47;;;;;;;36.2;22.6;;;;;;;;;;;;;
2024/01/22 19:05:16;;;;;;;27.7;17.2;;;;;;;;;;;;;
2024/01/22 19:07:41;;;;;;;16.3;10.7;;;;;;;;;;;;;
2024/01/22 19:10:10;;;;;;;21.3;12.7;;;;;;;;;;;;;
2024/01/22 19:12:36;;;;;;;13.6;8.1;;;;;;;;;;;;;
2024/01/22 19:15:01;;;;;;;8.9;6.6;;;;;;;;;;;;;
2024/01/22 19:17:28;;;;;;;8.3;5;;;;;;;;;;;;;
2024/01/22 19:19:54;;;;;;;7.2;3.8;;;;;;;;;;;;;
2024/01/22 19:22:19;;;;;;;5.9;3.9;;;;;;;;;;;;;
2024/01/22 19:24:44;;;;;;;5.5;3.9;;;;;;;;;;;;;
2024/01/22 19:27:10;;;;;;;5.1;3.4;;;;;;;;;;;;;
2024/01/22 19:29:35;;;;;;;5.1;3.2;;;;;;;;;;;;;
2024/01/22 19:32:02;;;;;;;6.2;3.3;;;;;;;;;;;;;
2024/01/22 19:34:27;;;;;;;7.6;4.4;;;;;;;;;;;;;